sensor_id;sensor_type;location;lat;lon;timestamp;P1;durP1;ratioP1;P2;durP2;ratioP2
33954;SDS011;20233;50.804;7.126;2023-03-01T00:00:54;19.58;;;11.55;;
33954;SDS011;20233;50.804;7.126;2023-03-01T00:03:25;18.13;;;10.73;;
33954;SDS011;20233;50.804;7.126;2023-03-01T00:05:50;18.35;;;10.70;;
33954;SDS011;20233;50.804;7.126;2023-03-01T00:08:16;17.25;;;10.27;;
33954;SDS011;20233;50.804;7.126;2023-03-01T00:10:41;16.58;;;10.20;;
33954;SDS011;20233;50.804;7.126;2023-03-01T00:13:07;15.05;;;9.70;;
33954;SDS011;20233;50.804;7.126;2023-03-01T00:15:33;16.13;;;8.75;;
33954;SDS011;20233;50.804;7.126;2023-03-01T00:18:00;19.80;;;9.43;;
33954;SDS011;20233;50.804;7.126;2023-03-01T00:20:25;19.23;;;10.38;;
33954;SDS011;20233;50.804;7.126;2023-03-01T00:22:51;15.35;;;9.23;;
33954;SDS011;20233;50.804;7.126;2023-03-01T00:25:16;17.23;;;9.98;;
33954;SDS011;20233;50.804;7.126;2023-03-01T00:27:42;15.80;;;9.88;;
33954;SDS011;20233;50.804;7.126;2023-03-01T00:30:07;14.93;;;9.45;;
33954;SDS011;20233;50.804;7.126;2023-03-01T00:32:33;20.08;;;10.43;;
33954;SDS011;20233;50.804;7.126;2023-03-01T00:34:59;34.75;;;16.38;;
33954;SDS011;20233;50.804;7.126;2023-03-01T00:37:24;27.23;;;12.85;;
33954;SDS011;20233;50.804;7.126;2023-03-01T00:39:50;20.92;;;11.13;;
33954;SDS011;20233;50.804;7.126;2023-03-01T00:42:16;18.95;;;10.85;;
33954;SDS011;20233;50.804;7.126;2023-03-01T00:44:42;18.50;;;9.60;;
33954;SDS011;20233;50.804;7.126;2023-03-01T00:47:07;14.98;;;9.30;;
33954;SDS011;20233;50.804;7.126;2023-03-01T00:49:33;17.15;;;10.20;;
33954;SDS011;20233;50.804;7.126;2023-03-01T00:51:59;19.08;;;9.65;;
33954;SDS011;20233;50.804;7.126;2023-03-01T00:54:24;21.50;;;9.90;;
33954;SDS011;20233;50.804;7.126;2023-03-01T00:56:50;16.67;;;10.52;;
33954;SDS011;20233;50.804;7.126;2023-03-01T00:59:15;21.08;;;10.18;;
33954;SDS011;20233;50.804;7.126;2023-03-01T01:01:41;18.55;;;9.95;;
33954;SDS011;20233;50.804;7.126;2023-03-01T01:04:08;17.55;;;10.38;;
33954;SDS011;20233;50.804;7.126;2023-03-01T01:06:36;19.77;;;11.43;;
33954;SDS011;20233;50.804;7.126;2023-03-01T01:09:04;13.77;;;8.75;;
33954;SDS011;20233;50.804;7.126;2023-03-01T01:11:31;18.77;;;10.90;;
33954;SDS011;20233;50.804;7.126;2023-03-01T01:13:58;16.48;;;9.27;;
33954;SDS011;20233;50.804;7.126;2023-03-01T01:16:25;19.40;;;11.10;;
33954;SDS011;20233;50.804;7.126;2023-03-01T01:18:52;19.85;;;10.13;;
33954;SDS011;20233;50.804;7.126;2023-03-01T01:21:18;17.52;;;9.48;;
33954;SDS011;20233;50.804;7.126;2023-03-01T01:23:46;17.80;;;10.35;;
33954;SDS011;20233;50.804;7.126;2023-03-01T01:26:13;15.45;;;9.15;;
33954;SDS011;20233;50.804;7.126;2023-03-01T01:28:41;16.23;;;10.18;;
33954;SDS011;20233;50.804;7.126;2023-03-01T01:31:06;17.15;;;9.75;;
33954;SDS011;20233;50.804;7.126;2023-03-01T01:33:32;16.38;;;10.32;;
33954;SDS011;20233;50.804;7.126;2023-03-01T01:35:58;14.32;;;8.93;;
33954;SDS011;20233;50.804;7.126;2023-03-01T01:38:23;16.20;;;9.07;;
33954;SDS011;20233;50.804;7.126;2023-03-01T01:40:49;16.45;;;8.95;;
33954;SDS011;20233;50.804;7.126;2023-03-01T01:43:23;15.70;;;9.55;;
33954;SDS011;20233;50.804;7.126;2023-03-01T01:45:50;14.38;;;9.02;;
33954;SDS011;20233;50.804;7.126;2023-03-01T01:48:21;16.08;;;10.30;;
33954;SDS011;20233;50.804;7.126;2023-03-01T01:50:58;18.20;;;9.65;;
33954;SDS011;20233;50.804;7.126;2023-03-01T01:53:24;17.50;;;9.88;;
33954;SDS011;20233;50.804;7.126;2023-03-01T01:55:52;16.27;;;9.02;;
33954;SDS011;20233;50.804;7.126;2023-03-01T01:58:22;15.48;;;9.05;;
33954;SDS011;20233;50.804;7.126;2023-03-01T02:00:50;18.25;;;10.93;;
33954;SDS011;20233;50.804;7.126;2023-03-01T02:03:23;14.90;;;8.82;;
33954;SDS011;20233;50.804;7.126;2023-03-01T02:08:24;18.33;;;9.48;;
33954;SDS011;20233;50.804;7.126;2023-03-01T02:10:53;16.42;;;9.77;;
33954;SDS011;20233;50.804;7.126;2023-03-01T02:13:20;14.93;;;8.85;;
33954;SDS011;20233;50.804;7.126;2023-03-01T02:15:46;15.73;;;9.23;;
33954;SDS011;20233;50.804;7.126;2023-03-01T02:18:12;14.43;;;9.38;;
33954;SDS011;20233;50.804;7.126;2023-03-01T02:23:26;14.43;;;9.00;;
33954;SDS011;20233;50.804;7.126;2023-03-01T02:25:57;16.73;;;9.18;;
33954;SDS011;20233;50.804;7.126;2023-03-01T02:31:05;15.57;;;9.65;;
33954;SDS011;20233;50.804;7.126;2023-03-01T02:33:51;16.20;;;9.25;;
33954;SDS011;20233;50.804;7.126;2023-03-01T02:36:22;16.13;;;8.98;;
33954;SDS011;20233;50.804;7.126;2023-03-01T02:38:52;18.27;;;10.02;;
33954;SDS011;20233;50.804;7.126;2023-03-01T02:41:21;22.33;;;10.25;;
33954;SDS011;20233;50.804;7.126;2023-03-01T02:43:48;14.95;;;8.63;;
33954;SDS011;20233;50.804;7.126;2023-03-01T02:46:18;21.55;;;10.25;;
33954;SDS011;20233;50.804;7.126;2023-03-01T02:48:48;19.35;;;9.15;;
33954;SDS011;20233;50.804;7.126;2023-03-01T02:51:24;17.98;;;9.45;;
33954;SDS011;20233;50.804;7.126;2023-03-01T02:54:16;20.35;;;10.77;;
33954;SDS011;20233;50.804;7.126;2023-03-01T02:56:52;18.10;;;9.23;;
33954;SDS011;20233;50.804;7.126;2023-03-01T02:59:19;19.52;;;9.95;;
33954;SDS011;20233;50.804;7.126;2023-03-01T03:01:47;16.40;;;9.82;;
33954;SDS011;20233;50.804;7.126;2023-03-01T03:04:14;17.98;;;10.40;;
33954;SDS011;20233;50.804;7.126;2023-03-01T03:06:43;16.55;;;10.25;;
33954;SDS011;20233;50.804;7.126;2023-03-01T03:09:10;16.40;;;9.70;;
33954;SDS011;20233;50.804;7.126;2023-03-01T03:11:36;16.98;;;9.75;;
33954;SDS011;20233;50.804;7.126;2023-03-01T03:14:04;16.23;;;9.85;;
33954;SDS011;20233;50.804;7.126;2023-03-01T03:16:30;18.63;;;10.10;;
33954;SDS011;20233;50.804;7.126;2023-03-01T03:18:55;16.55;;;9.25;;
33954;SDS011;20233;50.804;7.126;2023-03-01T03:21:32;15.32;;;8.98;;
33954;SDS011;20233;50.804;7.126;2023-03-01T03:23:59;19.63;;;10.02;;
33954;SDS011;20233;50.804;7.126;2023-03-01T03:26:24;20.55;;;10.23;;
33954;SDS011;20233;50.804;7.126;2023-03-01T03:28:50;19.30;;;10.57;;
33954;SDS011;20233;50.804;7.126;2023-03-01T03:31:16;18.15;;;9.88;;
33954;SDS011;20233;50.804;7.126;2023-03-01T03:33:41;16.67;;;10.13;;
33954;SDS011;20233;50.804;7.126;2023-03-01T03:36:08;17.23;;;9.90;;
33954;SDS011;20233;50.804;7.126;2023-03-01T03:38:38;17.08;;;9.43;;
33954;SDS011;20233;50.804;7.126;2023-03-01T03:41:05;20.15;;;10.23;;
33954;SDS011;20233;50.804;7.126;2023-03-01T03:43:35;19.15;;;11.10;;
33954;SDS011;20233;50.804;7.126;2023-03-01T03:46:02;17.27;;;9.60;;
33954;SDS011;20233;50.804;7.126;2023-03-01T03:48:30;16.95;;;9.95;;
33954;SDS011;20233;50.804;7.126;2023-03-01T03:50:58;18.95;;;9.80;;
33954;SDS011;20233;50.804;7.126;2023-03-01T03:53:27;18.40;;;10.32;;
33954;SDS011;20233;50.804;7.126;2023-03-01T03:55:54;18.08;;;11.07;;
33954;SDS011;20233;50.804;7.126;2023-03-01T03:58:20;20.60;;;9.68;;
33954;SDS011;20233;50.804;7.126;2023-03-01T04:00:49;20.30;;;10.30;;
33954;SDS011;20233;50.804;7.126;2023-03-01T04:03:23;18.17;;;9.88;;
33954;SDS011;20233;50.804;7.126;2023-03-01T04:05:51;17.63;;;9.52;;
33954;SDS011;20233;50.804;7.126;2023-03-01T04:08:21;21.02;;;10.07;;
33954;SDS011;20233;50.804;7.126;2023-03-01T04:10:48;18.55;;;10.20;;
33954;SDS011;20233;50.804;7.126;2023-03-01T04:13:17;19.30;;;10.27;;
33954;SDS011;20233;50.804;7.126;2023-03-01T04:15:51;16.10;;;9.00;;
33954;SDS011;20233;50.804;7.126;2023-03-01T04:18:18;17.92;;;10.40;;
33954;SDS011;20233;50.804;7.126;2023-03-01T04:20:45;15.68;;;10.13;;
33954;SDS011;20233;50.804;7.126;2023-03-01T04:23:15;18.40;;;9.95;;
33954;SDS011;20233;50.804;7.126;2023-03-01T04:25:46;21.50;;;10.50;;
33954;SDS011;20233;50.804;7.126;2023-03-01T04:28:19;18.45;;;10.07;;
33954;SDS011;20233;50.804;7.126;2023-03-01T04:30:52;18.33;;;10.68;;
33954;SDS011;20233;50.804;7.126;2023-03-01T04:33:18;20.38;;;10.40;;
33954;SDS011;20233;50.804;7.126;2023-03-01T04:35:44;19.80;;;10.55;;
33954;SDS011;20233;50.804;7.126;2023-03-01T04:38:10;24.48;;;11.02;;
33954;SDS011;20233;50.804;7.126;2023-03-01T04:40:35;22.23;;;11.38;;
33954;SDS011;20233;50.804;7.126;2023-03-01T04:43:02;21.83;;;10.77;;
33954;SDS011;20233;50.804;7.126;2023-03-01T04:45:28;19.13;;;11.07;;
33954;SDS011;20233;50.804;7.126;2023-03-01T04:47:54;17.88;;;11.52;;
33954;SDS011;20233;50.804;7.126;2023-03-01T04:50:23;19.60;;;11.57;;
33954;SDS011;20233;50.804;7.126;2023-03-01T04:52:48;18.13;;;10.35;;
33954;SDS011;20233;50.804;7.126;2023-03-01T04:55:14;18.48;;;10.55;;
33954;SDS011;20233;50.804;7.126;2023-03-01T04:57:40;20.98;;;10.73;;
33954;SDS011;20233;50.804;7.126;2023-03-01T05:00:06;24.73;;;11.00;;
33954;SDS011;20233;50.804;7.126;2023-03-01T05:02:45;19.35;;;11.20;;
33954;SDS011;20233;50.804;7.126;2023-03-01T05:05:14;20.85;;;10.93;;
33954;SDS011;20233;50.804;7.126;2023-03-01T05:07:40;19.85;;;10.80;;
33954;SDS011;20233;50.804;7.126;2023-03-01T05:10:06;21.42;;;11.45;;
33954;SDS011;20233;50.804;7.126;2023-03-01T05:12:31;20.42;;;10.65;;
33954;SDS011;20233;50.804;7.126;2023-03-01T05:14:57;23.55;;;12.00;;
33954;SDS011;20233;50.804;7.126;2023-03-01T05:17:23;22.23;;;11.70;;
33954;SDS011;20233;50.804;7.126;2023-03-01T05:19:49;19.48;;;11.13;;
33954;SDS011;20233;50.804;7.126;2023-03-01T05:22:15;21.63;;;11.50;;
33954;SDS011;20233;50.804;7.126;2023-03-01T05:24:41;20.85;;;10.75;;
33954;SDS011;20233;50.804;7.126;2023-03-01T05:27:07;22.17;;;11.70;;
33954;SDS011;20233;50.804;7.126;2023-03-01T05:29:32;19.60;;;10.82;;
33954;SDS011;20233;50.804;7.126;2023-03-01T05:32:00;21.15;;;10.65;;
33954;SDS011;20233;50.804;7.126;2023-03-01T05:34:27;20.35;;;11.63;;
33954;SDS011;20233;50.804;7.126;2023-03-01T05:36:55;19.90;;;11.43;;
33954;SDS011;20233;50.804;7.126;2023-03-01T05:39:21;22.80;;;11.63;;
33954;SDS011;20233;50.804;7.126;2023-03-01T05:41:51;23.13;;;11.27;;
33954;SDS011;20233;50.804;7.126;2023-03-01T05:44:18;20.08;;;10.30;;
33954;SDS011;20233;50.804;7.126;2023-03-01T05:46:43;18.88;;;11.10;;
33954;SDS011;20233;50.804;7.126;2023-03-01T05:49:09;20.60;;;11.90;;
33954;SDS011;20233;50.804;7.126;2023-03-01T05:51:35;23.85;;;12.05;;
33954;SDS011;20233;50.804;7.126;2023-03-01T05:54:01;22.35;;;11.30;;
33954;SDS011;20233;50.804;7.126;2023-03-01T05:56:27;19.67;;;11.18;;
33954;SDS011;20233;50.804;7.126;2023-03-01T05:58:52;21.77;;;11.05;;
33954;SDS011;20233;50.804;7.126;2023-03-01T06:01:18;17.98;;;10.13;;
33954;SDS011;20233;50.804;7.126;2023-03-01T06:03:43;24.52;;;10.73;;
33954;SDS011;20233;50.804;7.126;2023-03-01T06:06:09;21.38;;;10.90;;
33954;SDS011;20233;50.804;7.126;2023-03-01T06:08:34;19.80;;;10.50;;
33954;SDS011;20233;50.804;7.126;2023-03-01T06:11:00;22.15;;;11.07;;
33954;SDS011;20233;50.804;7.126;2023-03-01T06:13:26;18.58;;;10.60;;
33954;SDS011;20233;50.804;7.126;2023-03-01T06:15:51;20.13;;;10.60;;
33954;SDS011;20233;50.804;7.126;2023-03-01T06:18:17;19.42;;;10.60;;
33954;SDS011;20233;50.804;7.126;2023-03-01T06:20:45;18.98;;;10.88;;
33954;SDS011;20233;50.804;7.126;2023-03-01T06:23:19;19.17;;;10.13;;
33954;SDS011;20233;50.804;7.126;2023-03-01T06:25:45;17.55;;;10.07;;
33954;SDS011;20233;50.804;7.126;2023-03-01T06:28:11;20.48;;;11.18;;
33954;SDS011;20233;50.804;7.126;2023-03-01T06:30:36;20.35;;;10.20;;
33954;SDS011;20233;50.804;7.126;2023-03-01T06:33:02;18.58;;;10.60;;
33954;SDS011;20233;50.804;7.126;2023-03-01T06:35:30;18.42;;;9.77;;
33954;SDS011;20233;50.804;7.126;2023-03-01T06:37:56;20.83;;;11.10;;
33954;SDS011;20233;50.804;7.126;2023-03-01T06:40:23;19.92;;;11.38;;
33954;SDS011;20233;50.804;7.126;2023-03-01T06:42:50;19.23;;;10.18;;
33954;SDS011;20233;50.804;7.126;2023-03-01T06:45:16;22.58;;;11.07;;
33954;SDS011;20233;50.804;7.126;2023-03-01T06:47:43;23.55;;;12.48;;
33954;SDS011;20233;50.804;7.126;2023-03-01T06:50:09;22.17;;;10.55;;
33954;SDS011;20233;50.804;7.126;2023-03-01T06:52:35;21.08;;;10.55;;
33954;SDS011;20233;50.804;7.126;2023-03-01T06:55:02;19.77;;;11.30;;
33954;SDS011;20233;50.804;7.126;2023-03-01T06:57:28;21.70;;;11.30;;
33954;SDS011;20233;50.804;7.126;2023-03-01T06:59:53;20.65;;;11.23;;
33954;SDS011;20233;50.804;7.126;2023-03-01T07:02:19;22.10;;;12.45;;
33954;SDS011;20233;50.804;7.126;2023-03-01T07:04:45;21.33;;;11.02;;
33954;SDS011;20233;50.804;7.126;2023-03-01T07:07:11;28.85;;;13.90;;
33954;SDS011;20233;50.804;7.126;2023-03-01T07:09:36;26.33;;;11.95;;
33954;SDS011;20233;50.804;7.126;2023-03-01T07:12:02;25.63;;;12.10;;
33954;SDS011;20233;50.804;7.126;2023-03-01T07:14:28;24.55;;;12.75;;
33954;SDS011;20233;50.804;7.126;2023-03-01T07:16:53;25.73;;;12.90;;
33954;SDS011;20233;50.804;7.126;2023-03-01T07:19:20;24.40;;;12.30;;
33954;SDS011;20233;50.804;7.126;2023-03-01T07:21:47;26.02;;;13.32;;
33954;SDS011;20233;50.804;7.126;2023-03-01T07:24:12;21.48;;;11.48;;
33954;SDS011;20233;50.804;7.126;2023-03-01T07:26:38;22.98;;;12.00;;
33954;SDS011;20233;50.804;7.126;2023-03-01T07:29:04;22.67;;;12.57;;
33954;SDS011;20233;50.804;7.126;2023-03-01T07:31:32;23.38;;;12.48;;
33954;SDS011;20233;50.804;7.126;2023-03-01T07:33:58;23.88;;;12.73;;
33954;SDS011;20233;50.804;7.126;2023-03-01T07:36:25;26.60;;;13.48;;
33954;SDS011;20233;50.804;7.126;2023-03-01T07:38:50;26.98;;;12.98;;
33954;SDS011;20233;50.804;7.126;2023-03-01T07:41:16;22.77;;;13.25;;
33954;SDS011;20233;50.804;7.126;2023-03-01T07:43:42;27.15;;;14.02;;
33954;SDS011;20233;50.804;7.126;2023-03-01T07:46:08;28.55;;;13.55;;
33954;SDS011;20233;50.804;7.126;2023-03-01T07:48:35;27.92;;;13.50;;
33954;SDS011;20233;50.804;7.126;2023-03-01T07:51:01;25.38;;;13.05;;
33954;SDS011;20233;50.804;7.126;2023-03-01T07:53:30;27.02;;;14.15;;
33954;SDS011;20233;50.804;7.126;2023-03-01T07:58:37;25.88;;;13.63;;
33954;SDS011;20233;50.804;7.126;2023-03-01T08:01:08;30.80;;;13.90;;
33954;SDS011;20233;50.804;7.126;2023-03-01T08:03:37;23.45;;;13.30;;
33954;SDS011;20233;50.804;7.126;2023-03-01T08:06:05;26.90;;;13.00;;
33954;SDS011;20233;50.804;7.126;2023-03-01T08:08:34;22.20;;;12.77;;
33954;SDS011;20233;50.804;7.126;2023-03-01T08:11:02;28.05;;;14.13;;
33954;SDS011;20233;50.804;7.126;2023-03-01T08:13:31;26.52;;;14.38;;
33954;SDS011;20233;50.804;7.126;2023-03-01T08:16:02;22.17;;;12.75;;
33954;SDS011;20233;50.804;7.126;2023-03-01T08:18:30;25.55;;;12.57;;
33954;SDS011;20233;50.804;7.126;2023-03-01T08:21:16;24.90;;;12.98;;
33954;SDS011;20233;50.804;7.126;2023-03-01T08:23:44;23.92;;;12.20;;
33954;SDS011;20233;50.804;7.126;2023-03-01T08:26:11;22.88;;;12.80;;
33954;SDS011;20233;50.804;7.126;2023-03-01T08:28:44;23.67;;;13.00;;
33954;SDS011;20233;50.804;7.126;2023-03-01T08:31:25;24.25;;;12.80;;
33954;SDS011;20233;50.804;7.126;2023-03-01T08:33:55;26.40;;;12.90;;
33954;SDS011;20233;50.804;7.126;2023-03-01T08:36:25;26.17;;;14.27;;
33954;SDS011;20233;50.804;7.126;2023-03-01T08:38:57;30.75;;;13.68;;
33954;SDS011;20233;50.804;7.126;2023-03-01T08:41:24;28.55;;;14.25;;
33954;SDS011;20233;50.804;7.126;2023-03-01T08:43:51;28.20;;;14.15;;
33954;SDS011;20233;50.804;7.126;2023-03-01T08:46:27;29.15;;;13.40;;
33954;SDS011;20233;50.804;7.126;2023-03-01T08:48:56;28.63;;;14.40;;
33954;SDS011;20233;50.804;7.126;2023-03-01T08:51:23;25.85;;;14.35;;
33954;SDS011;20233;50.804;7.126;2023-03-01T08:53:51;33.15;;;15.45;;
33954;SDS011;20233;50.804;7.126;2023-03-01T08:56:20;28.33;;;14.98;;
33954;SDS011;20233;50.804;7.126;2023-03-01T08:58:47;28.38;;;14.85;;
33954;SDS011;20233;50.804;7.126;2023-03-01T09:01:15;27.63;;;14.30;;
33954;SDS011;20233;50.804;7.126;2023-03-01T09:03:44;28.23;;;14.82;;
33954;SDS011;20233;50.804;7.126;2023-03-01T09:06:10;30.85;;;15.70;;
33954;SDS011;20233;50.804;7.126;2023-03-01T09:08:38;27.45;;;14.18;;
33954;SDS011;20233;50.804;7.126;2023-03-01T09:11:07;26.73;;;15.07;;
33954;SDS011;20233;50.804;7.126;2023-03-01T09:13:35;26.58;;;14.93;;
33954;SDS011;20233;50.804;7.126;2023-03-01T09:16:05;28.42;;;15.18;;
33954;SDS011;20233;50.804;7.126;2023-03-01T09:18:33;31.50;;;16.27;;
33954;SDS011;20233;50.804;7.126;2023-03-01T09:21:21;30.17;;;16.15;;
33954;SDS011;20233;50.804;7.126;2023-03-01T09:23:49;28.67;;;15.85;;
33954;SDS011;20233;50.804;7.126;2023-03-01T09:26:20;27.35;;;14.93;;
33954;SDS011;20233;50.804;7.126;2023-03-01T09:28:49;24.23;;;14.25;;
33954;SDS011;20233;50.804;7.126;2023-03-01T09:31:21;27.35;;;14.80;;
33954;SDS011;20233;50.804;7.126;2023-03-01T09:33:51;26.67;;;14.80;;
33954;SDS011;20233;50.804;7.126;2023-03-01T09:36:20;25.00;;;14.65;;
33954;SDS011;20233;50.804;7.126;2023-03-01T09:38:51;31.13;;;15.80;;
33954;SDS011;20233;50.804;7.126;2023-03-01T09:42:04;25.30;;;15.43;;
33954;SDS011;20233;50.804;7.126;2023-03-01T09:47:02;28.48;;;15.27;;
33954;SDS011;20233;50.804;7.126;2023-03-01T09:49:31;26.55;;;14.80;;
33954;SDS011;20233;50.804;7.126;2023-03-01T09:55:00;26.58;;;13.45;;
33954;SDS011;20233;50.804;7.126;2023-03-01T10:08:34;22.02;;;12.60;;
33954;SDS011;20233;50.804;7.126;2023-03-01T10:11:19;21.02;;;12.45;;
33954;SDS011;20233;50.804;7.126;2023-03-01T10:18:55;17.38;;;10.75;;
33954;SDS011;20233;50.804;7.126;2023-03-01T10:21:27;17.58;;;10.45;;
33954;SDS011;20233;50.804;7.126;2023-03-01T10:24:08;20.08;;;9.90;;
33954;SDS011;20233;50.804;7.126;2023-03-01T10:26:48;17.92;;;9.20;;
33954;SDS011;20233;50.804;7.126;2023-03-01T10:29:18;19.48;;;9.80;;
33954;SDS011;20233;50.804;7.126;2023-03-01T10:31:52;15.77;;;9.35;;
33954;SDS011;20233;50.804;7.126;2023-03-01T10:34:21;15.38;;;9.18;;
33954;SDS011;20233;50.804;7.126;2023-03-01T10:39:58;13.77;;;8.57;;
33954;SDS011;20233;50.804;7.126;2023-03-01T10:43:10;15.18;;;8.52;;
33954;SDS011;20233;50.804;7.126;2023-03-01T10:48:23;12.45;;;7.65;;
33954;SDS011;20233;50.804;7.126;2023-03-01T10:53:28;12.88;;;7.00;;
33954;SDS011;20233;50.804;7.126;2023-03-01T10:58:33;12.10;;;7.68;;
33954;SDS011;20233;50.804;7.126;2023-03-01T11:01:26;16.77;;;8.10;;
33954;SDS011;20233;50.804;7.126;2023-03-01T11:06:34;15.07;;;8.93;;
33954;SDS011;20233;50.804;7.126;2023-03-01T11:09:23;15.10;;;7.97;;
33954;SDS011;20233;50.804;7.126;2023-03-01T11:11:53;14.40;;;7.60;;
33954;SDS011;20233;50.804;7.126;2023-03-01T11:14:27;15.65;;;7.65;;
33954;SDS011;20233;50.804;7.126;2023-03-01T11:17:05;12.48;;;6.15;;
33954;SDS011;20233;50.804;7.126;2023-03-01T11:20:17;14.18;;;7.28;;
33954;SDS011;20233;50.804;7.126;2023-03-01T11:22:58;12.55;;;7.88;;
33954;SDS011;20233;50.804;7.126;2023-03-01T11:25:36;13.60;;;7.28;;
33954;SDS011;20233;50.804;7.126;2023-03-01T11:28:06;11.90;;;7.47;;
33954;SDS011;20233;50.804;7.126;2023-03-01T11:30:45;13.55;;;8.05;;
33954;SDS011;20233;50.804;7.126;2023-03-01T11:50:08;14.13;;;8.32;;
33954;SDS011;20233;50.804;7.126;2023-03-01T12:11:47;10.48;;;7.00;;
33954;SDS011;20233;50.804;7.126;2023-03-01T12:14:31;12.90;;;7.22;;
33954;SDS011;20233;50.804;7.126;2023-03-01T12:20:02;12.15;;;6.20;;
33954;SDS011;20233;50.804;7.126;2023-03-01T12:25:56;10.50;;;6.25;;
33954;SDS011;20233;50.804;7.126;2023-03-01T12:28:47;10.35;;;5.38;;
33954;SDS011;20233;50.804;7.126;2023-03-01T12:42:54;10.43;;;6.80;;
33954;SDS011;20233;50.804;7.126;2023-03-01T12:45:43;11.98;;;5.95;;
33954;SDS011;20233;50.804;7.126;2023-03-01T12:48:25;8.98;;;5.80;;
33954;SDS011;20233;50.804;7.126;2023-03-01T12:50:57;10.82;;;6.50;;
33954;SDS011;20233;50.804;7.126;2023-03-01T12:53:30;14.60;;;7.45;;
33954;SDS011;20233;50.804;7.126;2023-03-01T12:56:05;14.35;;;7.40;;
33954;SDS011;20233;50.804;7.126;2023-03-01T13:01:36;10.25;;;6.43;;
33954;SDS011;20233;50.804;7.126;2023-03-01T13:04:24;11.80;;;6.72;;
33954;SDS011;20233;50.804;7.126;2023-03-01T13:15:35;8.60;;;5.63;;
33954;SDS011;20233;50.804;7.126;2023-03-01T13:18:03;10.85;;;6.18;;
33954;SDS011;20233;50.804;7.126;2023-03-01T13:20:34;11.35;;;5.82;;
33954;SDS011;20233;50.804;7.126;2023-03-01T13:31:55;9.95;;;6.35;;
33954;SDS011;20233;50.804;7.126;2023-03-01T13:34:03;10.30;;;5.97;;
33954;SDS011;20233;50.804;7.126;2023-03-01T13:37:09;11.18;;;5.97;;
33954;SDS011;20233;50.804;7.126;2023-03-01T13:39:44;10.93;;;6.07;;
33954;SDS011;20233;50.804;7.126;2023-03-01T13:45:04;11.18;;;5.15;;
33954;SDS011;20233;50.804;7.126;2023-03-01T13:47:43;8.40;;;5.13;;
33954;SDS011;20233;50.804;7.126;2023-03-01T13:50:24;7.32;;;4.93;;
33954;SDS011;20233;50.804;7.126;2023-03-01T13:53:01;10.15;;;6.32;;
33954;SDS011;20233;50.804;7.126;2023-03-01T13:55:47;8.50;;;4.60;;
33954;SDS011;20233;50.804;7.126;2023-03-01T13:58:25;12.00;;;5.65;;
33954;SDS011;20233;50.804;7.126;2023-03-01T14:01:00;8.73;;;5.18;;
33954;SDS011;20233;50.804;7.126;2023-03-01T14:03:30;9.30;;;5.07;;
33954;SDS011;20233;50.804;7.126;2023-03-01T14:08:34;7.07;;;4.63;;
33954;SDS011;20233;50.804;7.126;2023-03-01T14:21:42;7.68;;;4.43;;
33954;SDS011;20233;50.804;7.126;2023-03-01T14:24:26;8.40;;;4.15;;
33954;SDS011;20233;50.804;7.126;2023-03-01T14:26:53;8.20;;;4.90;;
33954;SDS011;20233;50.804;7.126;2023-03-01T14:29:24;7.30;;;4.35;;
33954;SDS011;20233;50.804;7.126;2023-03-01T14:32:28;6.78;;;4.55;;
33954;SDS011;20233;50.804;7.126;2023-03-01T14:34:57;9.50;;;4.05;;
33954;SDS011;20233;50.804;7.126;2023-03-01T14:39:52;9.10;;;4.20;;
33954;SDS011;20233;50.804;7.126;2023-03-01T14:42:21;8.02;;;4.97;;
33954;SDS011;20233;50.804;7.126;2023-03-01T14:44:50;8.05;;;4.70;;
33954;SDS011;20233;50.804;7.126;2023-03-01T14:47:30;9.80;;;5.15;;
33954;SDS011;20233;50.804;7.126;2023-03-01T14:50:02;8.52;;;4.93;;
33954;SDS011;20233;50.804;7.126;2023-03-01T14:52:39;7.25;;;4.65;;
33954;SDS011;20233;50.804;7.126;2023-03-01T14:55:20;7.70;;;5.32;;
33954;SDS011;20233;50.804;7.126;2023-03-01T14:57:51;10.25;;;5.63;;
33954;SDS011;20233;50.804;7.126;2023-03-01T15:00:22;10.77;;;5.57;;
33954;SDS011;20233;50.804;7.126;2023-03-01T15:02:56;9.07;;;5.35;;
33954;SDS011;20233;50.804;7.126;2023-03-01T15:05:30;9.48;;;4.57;;
33954;SDS011;20233;50.804;7.126;2023-03-01T15:07:57;8.65;;;4.97;;
33954;SDS011;20233;50.804;7.126;2023-03-01T15:10:28;10.23;;;5.40;;
33954;SDS011;20233;50.804;7.126;2023-03-01T15:13:14;14.65;;;7.97;;
33954;SDS011;20233;50.804;7.126;2023-03-01T15:15:49;10.50;;;5.70;;
33954;SDS011;20233;50.804;7.126;2023-03-01T15:18:26;17.13;;;10.20;;
33954;SDS011;20233;50.804;7.126;2023-03-01T15:20:56;13.55;;;8.27;;
33954;SDS011;20233;50.804;7.126;2023-03-01T15:23:41;8.80;;;4.85;;
33954;SDS011;20233;50.804;7.126;2023-03-01T15:26:26;7.97;;;4.78;;
33954;SDS011;20233;50.804;7.126;2023-03-01T15:28:57;7.07;;;3.97;;
33954;SDS011;20233;50.804;7.126;2023-03-01T15:31:27;8.30;;;4.68;;
33954;SDS011;20233;50.804;7.126;2023-03-01T15:34:11;8.82;;;4.35;;
33954;SDS011;20233;50.804;7.126;2023-03-01T15:47:53;9.93;;;4.97;;
33954;SDS011;20233;50.804;7.126;2023-03-01T15:50:31;8.43;;;5.68;;
33954;SDS011;20233;50.804;7.126;2023-03-01T15:53:13;9.13;;;5.38;;
33954;SDS011;20233;50.804;7.126;2023-03-01T16:00:46;7.78;;;4.97;;
33954;SDS011;20233;50.804;7.126;2023-03-01T16:03:14;10.00;;;4.65;;
33954;SDS011;20233;50.804;7.126;2023-03-01T16:05:47;9.73;;;5.93;;
33954;SDS011;20233;50.804;7.126;2023-03-01T16:08:17;9.27;;;5.43;;
33954;SDS011;20233;50.804;7.126;2023-03-01T16:10:46;9.70;;;5.95;;
33954;SDS011;20233;50.804;7.126;2023-03-01T16:13:15;12.68;;;4.55;;
33954;SDS011;20233;50.804;7.126;2023-03-01T16:15:43;9.52;;;5.75;;
33954;SDS011;20233;50.804;7.126;2023-03-01T16:18:09;10.30;;;5.07;;
33954;SDS011;20233;50.804;7.126;2023-03-01T16:20:37;9.30;;;5.50;;
33954;SDS011;20233;50.804;7.126;2023-03-01T16:23:04;11.00;;;5.15;;
33954;SDS011;20233;50.804;7.126;2023-03-01T16:25:34;8.75;;;5.03;;
33954;SDS011;20233;50.804;7.126;2023-03-01T16:28:01;8.70;;;4.30;;
33954;SDS011;20233;50.804;7.126;2023-03-01T16:30:33;8.73;;;5.00;;
33954;SDS011;20233;50.804;7.126;2023-03-01T16:33:03;9.60;;;5.03;;
33954;SDS011;20233;50.804;7.126;2023-03-01T16:35:33;13.55;;;6.85;;
33954;SDS011;20233;50.804;7.126;2023-03-01T16:37:59;9.32;;;5.15;;
33954;SDS011;20233;50.804;7.126;2023-03-01T16:40:28;10.32;;;5.32;;
33954;SDS011;20233;50.804;7.126;2023-03-01T16:42:56;9.98;;;5.63;;
33954;SDS011;20233;50.804;7.126;2023-03-01T16:45:29;8.25;;;4.75;;
33954;SDS011;20233;50.804;7.126;2023-03-01T16:48:02;9.50;;;5.50;;
33954;SDS011;20233;50.804;7.126;2023-03-01T16:50:30;10.75;;;6.05;;
33954;SDS011;20233;50.804;7.126;2023-03-01T16:52:59;10.55;;;4.80;;
33954;SDS011;20233;50.804;7.126;2023-03-01T16:55:26;9.27;;;5.22;;
33954;SDS011;20233;50.804;7.126;2023-03-01T16:57:53;8.77;;;5.25;;
33954;SDS011;20233;50.804;7.126;2023-03-01T17:00:21;11.77;;;7.72;;
33954;SDS011;20233;50.804;7.126;2023-03-01T17:02:48;9.00;;;4.72;;
33954;SDS011;20233;50.804;7.126;2023-03-01T17:05:15;9.90;;;5.53;;
33954;SDS011;20233;50.804;7.126;2023-03-01T17:07:40;7.68;;;4.63;;
33954;SDS011;20233;50.804;7.126;2023-03-01T17:10:08;10.00;;;5.07;;
33954;SDS011;20233;50.804;7.126;2023-03-01T17:12:36;9.25;;;5.25;;
33954;SDS011;20233;50.804;7.126;2023-03-01T17:15:04;11.07;;;5.72;;
33954;SDS011;20233;50.804;7.126;2023-03-01T17:17:32;8.15;;;4.88;;
33954;SDS011;20233;50.804;7.126;2023-03-01T17:20:00;10.77;;;5.97;;
33954;SDS011;20233;50.804;7.126;2023-03-01T17:22:32;8.52;;;5.05;;